Terminal Aerodrome Forecast
Issued by NWS Wichita, KS

Home | Current Version | Previous Version | Graphics & Text | Print | Product List | Glossary On
Versions: 1 2 3 4 5 6 7 8 9 10 11 12 13
000
FTUS43 KICT 230500
TAFICT
TAF
KICT 230522Z 2306/2406 18011KT P6SM SCT100
     FM231500 19018G26KT P6SM SCT080
     FM240100 17013KT P6SM SCT100=

USA.gov is the U.S. government's official web portal to all federal, state and local government web resources and services.